createdAt,value
2022-08-11T00:02:31.850Z,102244.53
2022-08-11T00:05:07.038Z,102249.84
2022-08-11T00:07:36.585Z,102243.50
2022-08-11T00:10:05.454Z,102244.59
2022-08-11T00:12:33.926Z,102235.97
2022-08-11T00:15:03.832Z,102242.69
2022-08-11T00:17:35.521Z,102246.69
2022-08-11T00:20:11.602Z,102245.03
2022-08-11T00:22:48.653Z,102244.44
2022-08-11T00:25:19.208Z,102247.00
2022-08-11T00:27:48.994Z,102247.09
2022-08-11T00:30:18.245Z,102245.53
2022-08-11T00:32:56.203Z,102253.53
2022-08-11T00:35:54.469Z,102254.25
2022-08-11T00:38:25.776Z,102252.28
2022-08-11T00:41:00.532Z,102250.34
2022-08-11T00:43:48.355Z,102253.00
2022-08-11T00:46:26.431Z,102243.81
2022-08-11T00:49:11.876Z,102250.66
2022-08-11T00:52:04.073Z,102245.13
2022-08-11T00:54:56.503Z,102245.13
2022-08-11T00:57:47.024Z,102244.44
2022-08-11T01:00:17.068Z,102240.34
2022-08-11T01:03:18.071Z,102241.94
2022-08-11T01:06:15.572Z,102232.47
2022-08-11T01:09:22.186Z,102232.72
2022-08-11T01:12:19.855Z,102235.72
2022-08-11T01:15:28.357Z,102226.41
2022-08-11T01:18:37.634Z,102233.00
2022-08-11T01:21:52.580Z,102231.69
2022-08-11T01:25:02.731Z,102222.88
2022-08-11T01:28:06.644Z,102223.22
2022-08-11T01:31:01.275Z,102216.28
2022-08-11T01:34:02.410Z,102220.47
2022-08-11T01:37:11.795Z,102214.94
2022-08-11T01:40:25.921Z,102220.13
2022-08-11T01:44:12.672Z,102216.03
2022-08-11T01:46:47.706Z,102209.59
2022-08-11T01:50:01.034Z,102212.81
2022-08-11T01:52:20.362Z,102209.38
2022-08-11T01:55:13.781Z,102196.56
2022-08-11T01:57:48.533Z,102207.22
2022-08-11T02:00:20.383Z,102206.03
2022-08-11T02:02:57.205Z,102204.00
2022-08-11T02:05:36.703Z,102206.88
2022-08-11T02:08:12.994Z,102204.94
2022-08-11T02:11:05.236Z,102207.13
2022-08-11T02:13:43.467Z,102199.34
2022-08-11T02:16:22.336Z,102204.00
2022-08-11T02:19:12.687Z,102197.06
2022-08-11T02:22:05.559Z,102213.03
2022-08-11T02:24:41.097Z,102197.81
2022-08-11T02:27:19.658Z,102199.97
2022-08-11T02:29:56.570Z,102200.22
2022-08-11T02:32:48.238Z,102196.28
2022-08-11T02:35:21.042Z,102192.69
2022-08-11T02:38:01.687Z,102190.19
2022-08-11T02:40:39.434Z,102193.19
2022-08-11T02:43:20.924Z,102196.16
2022-08-11T02:46:02.157Z,102190.91
2022-08-11T02:49:02.381Z,102192.22
2022-08-11T02:51:40.694Z,102199.31
2022-08-11T02:54:17.040Z,102186.03
2022-08-11T02:56:53.322Z,102185.53
2022-08-11T02:59:47.167Z,102189.00
2022-08-11T03:02:27.847Z,102185.66
2022-08-11T03:05:03.200Z,102188.06
2022-08-11T03:07:37.358Z,102186.41
2022-08-11T03:10:14.329Z,102176.13
2022-08-11T03:13:07.985Z,102182.44
2022-08-11T03:16:01.292Z,102189.25
2022-08-11T03:18:36.148Z,102185.06
2022-08-11T03:21:11.395Z,102184.22
2022-08-11T03:23:49.563Z,102183.88
2022-08-11T03:26:29.191Z,102182.66
2022-08-11T03:29:06.199Z,102176.13
2022-08-11T03:31:38.647Z,102179.34
2022-08-11T03:34:09.257Z,102181.50
2022-08-11T03:37:34.873Z,102183.66
2022-08-11T03:40:37.441Z,102177.78
2022-08-11T03:43:20.105Z,102180.53
2022-08-11T03:46:00.756Z,102182.44
2022-08-11T03:48:41.763Z,102182.72
2022-08-11T03:51:19.697Z,102185.34
2022-08-11T03:54:04.968Z,102177.78
2022-08-11T03:57:22.374Z,102175.28
2022-08-11T04:00:23.195Z,102174.09
2022-08-11T04:03:31.079Z,102168.81
2022-08-11T04:06:38.850Z,102167.03
2022-08-11T04:09:51.568Z,102172.16
2022-08-11T04:13:01.184Z,102162.13
2022-08-11T04:16:11.052Z,102162.00
2022-08-11T04:19:16.617Z,102150.63
2022-08-11T04:22:25.230Z,102145.38
2022-08-11T04:25:13.619Z,102154.69
2022-08-11T04:28:28.637Z,102152.06
2022-08-11T04:31:08.376Z,102154.94
2022-08-11T04:33:57.100Z,102153.00
2022-08-11T04:37:22.895Z,102152.84
2022-08-11T04:40:13.654Z,102147.44
2022-08-11T04:43:18.306Z,102153.81
2022-08-11T04:46:10.475Z,102150.09
2022-08-11T04:49:40.493Z,102146.72
2022-08-11T04:53:07.921Z,102142.06
2022-08-11T04:56:22.426Z,102145.50
2022-08-11T04:59:38.865Z,102144.31
2022-08-11T05:02:41.101Z,102143.25
2022-08-11T05:05:41.592Z,102142.19
2022-08-11T05:09:16.989Z,102145.16
2022-08-11T05:12:03.528Z,102147.69
2022-08-11T05:14:53.689Z,102155.66
2022-08-11T05:17:53.246Z,102158.19
2022-08-11T05:20:40.353Z,102161.50
2022-08-11T05:23:28.739Z,102165.47
2022-08-11T05:26:47.077Z,102163.09
2022-08-11T05:29:42.529Z,102165.16
2022-08-11T05:32:31.967Z,102171.00
2022-08-11T05:35:03.752Z,102170.34
2022-08-11T05:37:42.361Z,102166.63
2022-08-11T05:40:31.959Z,102169.50
2022-08-11T05:43:21.383Z,102171.09
2022-08-11T05:46:18.639Z,102176.00
2022-08-11T05:49:05.301Z,102170.84
2022-08-11T05:51:55.449Z,102171.56
2022-08-11T05:54:46.194Z,102185.81
2022-08-11T05:57:48.536Z,102182.72
2022-08-11T06:00:11.876Z,102172.88
2022-08-11T06:02:45.589Z,102170.38
2022-08-11T06:05:14.366Z,102168.81
2022-08-11T06:07:49.327Z,102171.19
2022-08-11T06:10:28.786Z,102167.50
2022-08-11T06:13:01.180Z,102169.91
2022-08-11T06:15:31.184Z,102173.00
2022-08-11T06:18:02.906Z,102177.19
2022-08-11T06:20:37.491Z,102175.72
2022-08-11T06:23:08.638Z,102178.06
2022-08-11T06:25:38.355Z,102174.94
2022-08-11T06:28:09.012Z,102179.72
2022-08-11T06:30:42.916Z,102170.47
2022-08-11T06:33:16.299Z,102178.72
2022-08-11T06:35:52.943Z,102174.63
2022-08-11T06:38:39.301Z,102172.91
2022-08-11T06:41:34.586Z,102170.97
2022-08-11T06:44:17.837Z,102173.84
2022-08-11T06:46:48.636Z,102172.59
2022-08-11T06:49:36.730Z,102158.28
2022-08-11T06:52:07.377Z,102161.03
2022-08-11T06:55:05.614Z,102151.00
2022-08-11T06:57:53.649Z,102163.88
2022-08-11T07:00:33.074Z,102160.88
2022-08-11T07:03:08.786Z,102157.94
2022-08-11T07:05:51.046Z,102161.53
2022-08-11T07:09:16.625Z,102162.94
2022-08-11T07:12:18.520Z,102159.50
2022-08-11T07:15:09.764Z,102164.84
2022-08-11T07:17:43.198Z,102169.72
2022-08-11T07:20:31.707Z,102170.47
2022-08-11T07:23:36.653Z,102165.47
2022-08-11T07:26:22.699Z,102165.34
2022-08-11T07:28:59.011Z,102165.22
2022-08-11T07:31:33.431Z,102170.50
2022-08-11T07:34:17.466Z,102164.06
2022-08-11T07:36:51.412Z,102154.72
2022-08-11T07:39:24.137Z,102156.00
2022-08-11T07:41:57.246Z,102161.09
2022-08-11T07:44:34.450Z,102165.00
2022-08-11T07:47:22.207Z,102157.78
2022-08-11T07:50:11.648Z,102170.66
2022-08-11T07:52:40.735Z,102163.91
2022-08-11T07:55:19.698Z,102171.88
2022-08-11T07:58:15.974Z,102174.38
2022-08-11T08:01:10.544Z,102161.88
2022-08-11T08:04:02.702Z,102161.34
2022-08-11T08:06:51.798Z,102168.94
2022-08-11T08:09:39.734Z,102154.53
2022-08-11T08:12:27.772Z,102167.81
2022-08-11T08:15:15.072Z,102163.94
2022-08-11T08:18:09.106Z,102164.47
2022-08-11T08:20:49.709Z,102160.59
2022-08-11T08:23:33.306Z,102158.38
2022-08-11T08:26:04.434Z,102163.94
2022-08-11T08:28:35.044Z,102161.66
2022-08-11T08:31:02.956Z,102166.34
2022-08-11T08:33:33.597Z,102169.31
2022-08-11T08:36:15.497Z,102159.22
2022-08-11T08:38:49.618Z,102159.34
2022-08-11T08:41:23.325Z,102165.75
2022-08-11T08:43:59.873Z,102153.53
2022-08-11T08:46:47.337Z,102158.09
2022-08-11T08:49:19.326Z,102156.16
2022-08-11T08:52:00.855Z,102162.75
2022-08-11T08:54:45.663Z,102168.25
2022-08-11T08:57:14.783Z,102153.53
2022-08-11T08:59:51.348Z,102144.81
2022-08-11T09:02:33.571Z,102143.44
2022-08-11T09:05:04.138Z,102140.97
2022-08-11T09:07:39.393Z,102148.38
2022-08-11T09:10:09.901Z,102146.03
2022-08-11T09:12:40.773Z,102133.13
2022-08-11T09:15:12.791Z,102132.41
2022-08-11T09:17:44.668Z,102130.69
2022-08-11T09:20:15.909Z,102136.66
2022-08-11T09:23:41.674Z,102136.78
2022-08-11T09:26:11.294Z,102138.00
2022-08-11T09:28:39.870Z,102143.91
2022-08-11T09:31:11.015Z,102145.59
2022-08-11T09:33:40.627Z,102128.97
2022-08-11T09:36:30.919Z,102134.44
2022-08-11T09:39:18.961Z,102136.41
2022-08-11T09:42:00.780Z,102124.25
2022-08-11T09:44:49.720Z,102124.41
2022-08-11T09:47:24.756Z,102116.63
2022-08-11T09:50:00.119Z,102120.69
2022-08-11T09:52:31.996Z,102117.59
2022-08-11T09:55:01.116Z,102117.00
2022-08-11T09:57:47.084Z,102110.47
2022-08-11T10:00:16.584Z,102108.69
2022-08-11T10:02:49.040Z,102105.59
2022-08-11T10:05:37.659Z,102099.59
2022-08-11T10:08:06.950Z,102097.16
2022-08-11T10:10:38.879Z,102096.69
2022-08-11T10:13:44.023Z,102090.16
2022-08-11T10:16:16.328Z,102084.28
2022-08-11T10:18:53.361Z,102083.25
2022-08-11T10:21:29.231Z,102082.78
2022-08-11T10:24:19.537Z,102079.78
2022-08-11T10:26:55.427Z,102071.63
2022-08-11T10:29:45.223Z,102074.38
2022-08-11T10:32:57.423Z,102080.28
2022-08-11T10:35:28.795Z,102085.44
2022-08-11T10:38:06.716Z,102073.25
2022-08-11T10:40:40.100Z,102072.50
2022-08-11T10:43:56.770Z,102080.09
2022-08-11T10:46:30.336Z,102068.13
2022-08-11T10:49:00.090Z,102069.50
2022-08-11T10:51:50.561Z,102064.16
2022-08-11T10:54:39.831Z,102065.19
2022-08-11T10:57:26.122Z,102067.13
2022-08-11T10:59:57.672Z,102060.34
2022-08-11T11:02:27.416Z,102055.72
2022-08-11T11:05:02.734Z,102049.66
2022-08-11T11:07:44.196Z,102049.22
2022-08-11T11:10:12.786Z,102049.84
2022-08-11T11:13:02.430Z,102047.22
2022-08-11T11:15:50.232Z,102056.31
2022-08-11T11:18:23.614Z,102054.28
2022-08-11T11:20:57.792Z,102042.88
2022-08-11T11:23:33.898Z,102048.53
2022-08-11T11:26:32.592Z,102045.53
2022-08-11T11:29:12.106Z,102042.41
2022-08-11T11:31:58.543Z,102042.91
2022-08-11T11:34:47.866Z,102040.22
2022-08-11T11:37:22.111Z,102042.47
2022-08-11T11:39:52.258Z,102040.03
2022-08-11T11:42:22.178Z,102026.28
2022-08-11T11:44:54.151Z,102037.38
2022-08-11T11:47:24.923Z,102033.38
2022-08-11T11:49:54.403Z,102023.63
2022-08-11T11:52:23.802Z,102026.78
2022-08-11T11:54:56.525Z,102012.94
2022-08-11T11:57:59.295Z,102020.34
2022-08-11T12:00:49.183Z,102014.09
2022-08-11T12:03:18.348Z,102013.69
2022-08-11T12:05:47.743Z,102007.88
2022-08-11T12:08:17.416Z,102007.38
2022-08-11T12:10:49.255Z,101997.22
2022-08-11T12:13:38.741Z,102000.56
2022-08-11T12:16:33.268Z,101992.78
2022-08-11T12:19:00.029Z,101999.63
2022-08-11T12:21:29.834Z,101987.88
2022-08-11T12:24:34.008Z,101985.72
2022-08-11T12:27:24.094Z,101987.53
2022-08-11T12:29:56.850Z,101984.38
2022-08-11T12:32:28.217Z,101977.53
2022-08-11T12:34:58.040Z,101985.38
2022-08-11T12:37:31.455Z,101975.53
2022-08-11T12:40:43.711Z,101974.72
2022-08-11T12:43:38.338Z,101973.34
2022-08-11T12:46:15.514Z,101968.13
2022-08-11T12:49:04.333Z,101967.34
2022-08-11T12:52:13.866Z,101964.66
2022-08-11T12:54:57.310Z,101967.94
2022-08-11T12:57:45.539Z,101953.75
2022-08-11T13:00:34.262Z,101949.75
2022-08-11T13:03:21.761Z,101940.91
2022-08-11T13:05:54.590Z,101946.13
2022-08-11T13:08:25.157Z,101933.78
2022-08-11T13:11:13.349Z,101942.44
2022-08-11T13:13:54.824Z,101950.50
2022-08-11T13:16:30.261Z,101942.84
2022-08-11T13:19:01.329Z,101944.72
2022-08-11T13:21:31.040Z,101935.97
2022-08-11T13:24:03.115Z,101944.97
2022-08-11T13:26:50.027Z,101940.78
2022-08-11T13:29:47.386Z,101937.78
2022-08-11T13:32:21.429Z,101937.13
2022-08-11T13:34:50.152Z,101938.09
2022-08-11T13:38:18.476Z,101942.59
2022-08-11T13:40:12.361Z,101940.13
2022-08-11T13:42:41.783Z,101940.78
2022-08-11T13:45:11.606Z,101941.13
2022-08-11T13:51:03.757Z,101936.69
2022-08-11T13:53:33.397Z,101931.25
2022-08-11T13:56:02.291Z,101925.94
2022-08-11T13:58:40.048Z,101927.59
2022-08-11T14:01:24.552Z,101927.44
2022-08-11T14:04:29.848Z,101921.81
2022-08-11T14:07:00.165Z,101929.59
2022-08-11T14:09:31.235Z,101925.78
2022-08-11T14:12:24.400Z,101931.38
2022-08-11T14:15:07.579Z,101922.97
2022-08-11T14:17:48.761Z,101924.63
2022-08-11T14:20:38.213Z,101923.97
2022-08-11T14:23:13.719Z,101919.63
2022-08-11T14:26:03.810Z,101908.31
2022-08-11T14:28:40.049Z,101908.94
2022-08-11T14:31:13.123Z,101904.50
2022-08-11T14:33:59.394Z,101907.44
2022-08-11T14:36:33.965Z,101903.97
2022-08-11T14:39:05.668Z,101905.28
2022-08-11T14:42:10.513Z,101902.16
2022-08-11T14:45:01.003Z,101892.94
2022-08-11T14:47:31.815Z,101893.09
2022-08-11T14:50:11.509Z,101897.72
2022-08-11T14:52:49.869Z,101901.69
2022-08-11T14:55:36.504Z,101898.19
2022-08-11T14:58:06.455Z,101896.34
2022-08-11T15:00:35.993Z,101896.81
2022-08-11T15:03:11.164Z,101895.75
2022-08-11T15:05:53.656Z,101898.44
2022-08-11T15:08:47.249Z,101889.63
2022-08-11T15:11:35.304Z,101901.28
2022-08-11T15:14:06.863Z,101890.56
2022-08-11T15:16:54.955Z,101893.31
2022-08-11T15:19:23.169Z,101885.44
2022-08-11T15:22:09.118Z,101880.91
2022-08-11T15:24:38.726Z,101877.34
2022-08-11T15:27:29.830Z,101885.44
2022-08-11T15:30:29.892Z,101880.81
2022-08-11T15:33:23.469Z,101880.63
2022-08-11T15:36:10.747Z,101885.44
2022-08-11T15:38:42.711Z,101890.13
2022-08-11T15:41:34.359Z,101886.13
2022-08-11T15:44:44.663Z,101888.25
2022-08-11T15:47:15.535Z,101889.50
2022-08-11T15:50:11.155Z,101876.47
2022-08-11T15:52:49.423Z,101874.00
2022-08-11T15:55:19.626Z,101874.97
2022-08-11T15:58:09.545Z,101867.13
2022-08-11T16:01:04.222Z,101865.13
2022-08-11T16:04:05.976Z,101865.88
2022-08-11T16:06:49.346Z,101871.44
2022-08-11T16:09:23.578Z,101865.19
2022-08-11T16:11:53.690Z,101866.03
2022-08-11T16:14:42.921Z,101859.44
2022-08-11T16:17:13.269Z,101860.56
2022-08-11T16:19:42.483Z,101861.53
2022-08-11T16:22:12.992Z,101857.75
2022-08-11T16:27:05.986Z,101850.28
2022-08-11T16:27:38.567Z,101865.84
2022-08-11T16:30:10.435Z,101868.75
2022-08-11T16:32:41.577Z,101856.50
2022-08-11T16:35:30.635Z,101851.78
2022-08-11T16:38:17.909Z,101855.09
2022-08-11T16:40:48.047Z,101851.91
2022-08-11T16:43:33.592Z,101862.91
2022-08-11T16:46:22.801Z,101854.91
2022-08-11T16:48:53.548Z,101851.50
2022-08-11T16:51:23.344Z,101849.13
2022-08-11T16:54:04.526Z,101846.38
2022-08-11T16:56:39.124Z,101842.53
2022-08-11T16:59:16.609Z,101840.84
2022-08-11T17:01:54.110Z,101829.81
2022-08-11T17:04:47.263Z,101829.72
2022-08-11T17:07:42.365Z,101832.44
2022-08-11T17:10:50.950Z,101826.56
2022-08-11T17:13:27.182Z,101828.69
2022-08-11T17:16:12.086Z,101819.44
2022-08-11T17:18:47.125Z,101815.97
2022-08-11T17:21:27.000Z,101818.88
2022-08-11T17:23:58.965Z,101816.00
2022-08-11T17:26:52.571Z,101810.50
2022-08-11T17:29:24.649Z,101809.13
2022-08-11T17:32:12.729Z,101810.75
2022-08-11T17:35:03.014Z,101812.94
2022-08-11T17:37:33.397Z,101818.06
2022-08-11T17:40:06.220Z,101808.84
2022-08-11T17:42:53.789Z,101801.72
2022-08-11T17:45:41.442Z,101814.00
2022-08-11T17:48:29.364Z,101809.91
2022-08-11T17:51:03.039Z,101822.59
2022-08-11T17:54:09.985Z,101813.00
2022-08-11T17:56:58.999Z,101812.44
2022-08-11T17:59:49.043Z,101816.63
2022-08-11T18:02:36.856Z,101815.91
2022-08-11T18:05:12.323Z,101822.41
2022-08-11T18:08:03.861Z,101813.31
2022-08-11T18:10:51.770Z,101815.75
2022-08-11T18:13:41.712Z,101806.44
2022-08-11T18:16:28.823Z,101819.28
2022-08-11T18:19:15.174Z,101803.03
2022-08-11T18:22:13.177Z,101810.09
2022-08-11T18:25:07.139Z,101814.38
2022-08-11T18:27:54.768Z,101825.56
2022-08-11T18:30:41.914Z,101823.50
2022-08-11T18:36:40.048Z,101831.78
2022-08-11T18:39:30.874Z,101829.31
2022-08-11T18:42:29.309Z,101839.34
2022-08-11T18:45:19.927Z,101840.28
2022-08-11T18:48:09.169Z,101846.47
2022-08-11T18:51:00.627Z,101849.44
2022-08-11T18:54:08.974Z,101844.97
2022-08-11T18:56:55.048Z,101852.06
2022-08-11T18:59:45.913Z,101847.00
2022-08-11T19:02:31.906Z,101848.84
2022-08-11T19:06:31.945Z,101848.97
2022-08-11T19:08:28.497Z,101856.81
2022-08-11T19:11:16.468Z,101866.84
2022-08-11T19:14:07.082Z,101866.84
2022-08-11T19:16:55.931Z,101865.78
2022-08-11T19:19:47.719Z,101866.53
2022-08-11T19:22:36.408Z,101866.03
2022-08-11T19:25:25.781Z,101872.25
2022-08-11T19:28:13.722Z,101872.88
2022-08-11T19:31:00.985Z,101871.19
2022-08-11T19:34:03.824Z,101871.59
2022-08-11T19:36:57.142Z,101879.53
2022-08-11T19:39:46.257Z,101877.75
2022-08-11T19:42:33.526Z,101881.41
2022-08-11T19:45:21.187Z,101887.34
2022-08-11T19:48:30.743Z,101893.63
2022-08-11T19:51:17.818Z,101890.31
2022-08-11T19:54:05.067Z,101891.94
2022-08-11T19:56:52.076Z,101896.47
2022-08-11T19:59:39.444Z,101897.88
2022-08-11T20:02:25.594Z,101906.03
2022-08-11T20:05:11.788Z,101899.22
2022-08-11T20:08:01.169Z,101905.69
2022-08-11T20:10:49.761Z,101909.31
2022-08-11T20:13:37.883Z,101905.25
2022-08-11T20:16:31.150Z,101898.94
2022-08-11T20:19:20.040Z,101910.00
2022-08-11T20:22:13.930Z,101906.16
2022-08-11T20:25:04.258Z,101917.00
2022-08-11T20:27:55.530Z,101904.53
2022-08-11T20:30:41.824Z,101914.53
2022-08-11T20:33:28.396Z,101912.97
2022-08-11T20:36:13.970Z,101905.69
2022-08-11T20:39:00.418Z,101918.50
2022-08-11T20:41:58.802Z,101916.34
2022-08-11T20:44:48.938Z,101915.25
2022-08-11T20:47:56.216Z,101918.59
2022-08-11T20:50:45.901Z,101923.06
2022-08-11T20:53:36.746Z,101920.31
2022-08-11T20:56:28.649Z,101923.66
2022-08-11T20:59:21.480Z,101927.31
2022-08-11T21:02:10.051Z,101924.25
2022-08-11T21:04:57.419Z,101933.41
2022-08-11T21:07:55.569Z,101944.53
2022-08-11T21:10:50.549Z,101946.75
2022-08-11T21:13:39.512Z,101936.53
2022-08-11T21:16:28.608Z,101936.53
2022-08-11T21:19:54.453Z,101940.41
2022-08-11T21:22:28.132Z,101931.53
2022-08-11T21:25:16.452Z,101932.63
2022-08-11T21:28:03.546Z,101936.53
2022-08-11T21:30:51.442Z,101939.03
2022-08-11T21:33:47.193Z,101935.47
2022-08-11T21:36:34.187Z,101937.16
2022-08-11T21:39:22.843Z,101931.31
2022-08-11T21:42:12.395Z,101942.41
2022-08-11T21:45:00.068Z,101941.84
2022-08-11T21:47:46.596Z,101942.41
2022-08-11T21:50:33.889Z,101939.94
2022-08-11T21:53:19.825Z,101941.31
2022-08-11T21:56:06.907Z,101933.28
2022-08-11T21:58:52.823Z,101947.69
2022-08-11T22:01:39.843Z,101940.22
2022-08-11T22:04:26.081Z,101943.81
2022-08-11T22:07:13.508Z,101940.22
2022-08-11T22:09:59.328Z,101956.84
2022-08-11T22:12:45.542Z,101942.66
2022-08-11T22:15:31.451Z,101939.06
2022-08-11T22:18:17.157Z,101942.66
2022-08-11T22:21:03.977Z,101941.53
2022-08-11T22:23:55.028Z,101946.53
2022-08-11T22:26:41.970Z,101934.91
2022-08-11T22:29:38.182Z,101946.53
2022-08-11T22:32:38.395Z,101959.25
2022-08-11T22:35:28.540Z,101953.41
2022-08-11T22:38:16.158Z,101949.50
2022-08-11T22:41:03.199Z,101945.63
2022-08-11T22:43:48.733Z,101950.88
2022-08-11T22:46:37.085Z,101942.31
2022-08-11T22:49:24.326Z,101950.03
2022-08-11T22:52:09.818Z,101950.34
2022-08-11T22:54:56.513Z,101955.28
2022-08-11T22:58:00.473Z,101951.94
2022-08-11T23:00:47.696Z,101954.72
2022-08-11T23:03:38.312Z,101952.72
2022-08-11T23:06:26.058Z,101955.25
2022-08-11T23:09:12.392Z,101952.22
2022-08-11T23:12:06.058Z,101953.53
2022-08-11T23:14:55.862Z,101951.59
2022-08-11T23:17:41.939Z,101946.03
2022-08-11T23:20:41.525Z,101945.72
2022-08-11T23:23:36.476Z,101951.25
2022-08-11T23:26:22.999Z,101957.63
2022-08-11T23:29:08.407Z,101961.47
2022-08-11T23:31:56.545Z,101959.84
2022-08-11T23:35:04.302Z,101962.28
2022-08-11T23:37:54.891Z,101951.22
2022-08-11T23:40:40.951Z,101962.28
2022-08-11T23:43:26.983Z,101955.03
2022-08-11T23:46:12.519Z,101957.25
2022-08-11T23:49:00.042Z,101962.47
2022-08-11T23:51:47.803Z,101960.53
2022-08-11T23:54:37.328Z,101964.91
2022-08-11T23:57:23.833Z,101951.59
